createdAt,value
2018-02-14T00:00:14.227Z,0.00
2018-02-14T00:01:14.178Z,0.00
2018-02-14T00:02:14.176Z,0.00
2018-02-14T00:03:14.077Z,0.00
2018-02-14T00:04:14.036Z,0.00
2018-02-14T00:05:14.279Z,0.00
2018-02-14T00:06:13.929Z,0.00
2018-02-14T00:07:13.881Z,0.00
2018-02-14T00:08:13.831Z,0.00
2018-02-14T00:09:13.781Z,0.00
2018-02-14T00:10:13.736Z,0.00
2018-02-14T00:11:13.984Z,0.00
2018-02-14T00:12:13.636Z,0.00
2018-02-14T00:13:13.596Z,0.00
2018-02-14T00:14:13.534Z,0.00
2018-02-14T00:15:13.485Z,0.00
2018-02-14T00:16:13.436Z,0.00
2018-02-14T00:17:13.693Z,0.00
2018-02-14T00:18:13.339Z,0.00
2018-02-14T00:19:13.288Z,0.00
2018-02-14T00:20:13.238Z,0.00
2018-02-14T00:21:13.191Z,0.00
2018-02-14T00:22:13.140Z,0.00
2018-02-14T00:23:13.098Z,0.00
2018-02-14T00:24:13.341Z,0.00
2018-02-14T00:25:12.991Z,0.00
2018-02-14T00:26:12.947Z,0.00
2018-02-14T00:27:12.892Z,0.00
2018-02-14T00:28:12.844Z,0.00
2018-02-14T00:29:12.845Z,0.00
2018-02-14T00:30:12.794Z,0.00
2018-02-14T00:31:12.993Z,0.00
2018-02-14T00:32:12.649Z,0.00
2018-02-14T00:33:12.598Z,0.00
2018-02-14T00:34:12.546Z,0.00
2018-02-14T00:35:12.497Z,0.00
2018-02-14T00:36:12.462Z,0.00
2018-02-14T00:37:12.395Z,0.00
2018-02-14T00:38:12.645Z,0.00
2018-02-14T00:39:12.299Z,0.00
2018-02-14T00:40:12.252Z,0.00
2018-02-14T00:41:12.198Z,0.00
2018-02-14T00:42:12.150Z,0.00
2018-02-14T00:43:12.098Z,0.00
2018-02-14T00:44:12.053Z,0.00
2018-02-14T00:45:12.304Z,0.00
2018-02-14T00:46:11.953Z,0.00
2018-02-14T00:47:11.899Z,0.00
2018-02-14T00:48:11.854Z,0.00
2018-02-14T00:49:11.799Z,0.00
2018-02-14T00:50:11.754Z,0.00
2018-02-14T00:51:11.702Z,0.00
2018-02-14T00:52:11.953Z,0.00
2018-02-14T00:53:11.652Z,0.00
2018-02-14T00:54:11.553Z,0.00
2018-02-14T00:55:11.503Z,0.00
2018-02-14T00:56:11.457Z,0.00
2018-02-14T00:57:11.406Z,0.00
2018-02-14T00:58:11.654Z,0.00
2018-02-14T00:59:11.304Z,0.00
2018-02-14T01:00:11.255Z,0.00
2018-02-14T01:01:11.205Z,0.00
2018-02-14T01:02:11.154Z,0.00
2018-02-14T01:03:11.106Z,0.00
2018-02-14T01:04:11.358Z,0.00
2018-02-14T01:05:11.006Z,0.00
2018-02-14T01:06:10.956Z,0.00
2018-02-14T01:07:10.906Z,0.00
2018-02-14T01:09:10.806Z,0.00
2018-02-14T01:10:11.056Z,0.00
2018-02-14T01:11:10.707Z,0.00
2018-02-14T01:12:10.658Z,0.00
2018-02-14T01:13:10.607Z,0.00
2018-02-14T01:14:10.559Z,0.00
2018-02-14T01:15:10.508Z,0.00
2018-02-14T01:16:10.859Z,0.00
2018-02-14T01:17:10.412Z,0.00
2018-02-14T01:18:10.357Z,0.00
2018-02-14T01:19:10.318Z,0.00
2018-02-14T01:20:10.260Z,0.00
2018-02-14T01:21:10.207Z,0.00
2018-02-14T01:22:10.458Z,0.00
2018-02-14T01:23:10.111Z,0.00
2018-02-14T01:24:10.064Z,0.00
2018-02-14T01:25:10.011Z,0.00
2018-02-14T01:26:09.962Z,0.00
2018-02-14T01:27:09.909Z,0.00
2018-02-14T01:28:09.864Z,0.00
2018-02-14T01:29:10.115Z,0.00
2018-02-14T01:30:09.768Z,0.00
2018-02-14T01:32:09.673Z,0.00
2018-02-14T01:33:09.613Z,0.00
2018-02-14T01:34:09.558Z,0.00
2018-02-14T01:35:09.510Z,0.00
2018-02-14T01:36:09.763Z,0.00
2018-02-14T01:37:09.412Z,0.00
2018-02-14T01:38:09.363Z,0.00
2018-02-14T01:39:09.313Z,0.00
2018-02-14T01:40:09.259Z,0.00
2018-02-14T01:41:09.208Z,0.00
2018-02-14T01:42:09.210Z,0.00
2018-02-14T01:43:09.411Z,0.00
2018-02-14T01:44:09.059Z,0.00
2018-02-14T01:45:09.009Z,0.00
2018-02-14T01:46:08.959Z,0.00
2018-02-14T01:47:08.912Z,0.00
2018-02-14T01:48:08.860Z,0.00
2018-02-14T01:49:08.808Z,0.00
2018-02-14T01:50:09.060Z,0.00
2018-02-14T01:51:08.710Z,0.00
2018-02-14T01:52:08.661Z,0.00
2018-02-14T01:53:08.612Z,0.00
2018-02-14T01:54:08.612Z,0.00
2018-02-14T01:55:08.512Z,0.00
2018-02-14T01:56:08.460Z,0.00
2018-02-14T01:57:08.717Z,0.00
2018-02-14T01:58:08.360Z,0.00
2018-02-14T01:59:08.309Z,0.00
2018-02-14T02:00:08.258Z,0.00
2018-02-14T02:01:08.214Z,0.00
2018-02-14T02:02:08.157Z,0.00
2018-02-14T02:03:08.107Z,0.00
2018-02-14T02:04:08.364Z,0.00
2018-02-14T02:05:08.009Z,0.00
2018-02-14T02:06:07.957Z,0.00
2018-02-14T02:07:07.910Z,0.00
2018-02-14T02:08:07.861Z,0.00
2018-02-14T02:09:07.812Z,0.00
2018-02-14T02:10:08.058Z,0.00
2018-02-14T02:11:07.708Z,0.00
2018-02-14T02:12:07.659Z,0.00
2018-02-14T02:13:07.608Z,0.00
2018-02-14T02:14:07.558Z,0.00
2018-02-14T02:15:07.512Z,0.00
2018-02-14T02:16:07.764Z,0.00
2018-02-14T02:17:07.408Z,0.00
2018-02-14T02:18:07.366Z,0.00
2018-02-14T02:19:07.312Z,0.00
2018-02-14T02:20:07.260Z,0.00
2018-02-14T02:21:07.223Z,0.00
2018-02-14T02:22:08.459Z,0.00
2018-02-14T02:23:07.107Z,0.00
2018-02-14T02:24:07.065Z,0.00
2018-02-14T02:25:07.009Z,0.00
2018-02-14T02:26:06.961Z,0.00
2018-02-14T02:27:06.962Z,0.00
2018-02-14T02:28:07.158Z,0.00
2018-02-14T02:29:06.807Z,0.00
2018-02-14T02:30:06.759Z,0.00
2018-02-14T02:31:06.710Z,0.00
2018-02-14T02:32:06.659Z,0.00
2018-02-14T02:33:06.612Z,0.00
2018-02-14T02:34:06.863Z,0.00
2018-02-14T02:35:06.508Z,0.00
2018-02-14T02:36:06.461Z,0.00
2018-02-14T02:37:06.409Z,0.00
2018-02-14T02:38:06.360Z,0.00
2018-02-14T02:39:06.311Z,0.00
2018-02-14T02:40:06.259Z,0.00
2018-02-14T02:41:06.508Z,0.00
2018-02-14T02:42:06.159Z,0.00
2018-02-14T02:43:06.158Z,0.00
2018-02-14T02:44:06.061Z,0.00
2018-02-14T02:45:06.008Z,0.00
2018-02-14T02:46:05.967Z,0.00
2018-02-14T02:47:05.909Z,0.00
2018-02-14T02:48:06.165Z,0.00
2018-02-14T02:49:05.810Z,0.00
2018-02-14T02:50:05.759Z,0.00
2018-02-14T02:51:05.713Z,0.00
2018-02-14T02:52:05.665Z,0.00
2018-02-14T02:53:05.611Z,0.00
2018-02-14T02:54:05.561Z,0.00
2018-02-14T02:55:05.819Z,0.00
2018-02-14T02:56:05.462Z,0.00
2018-02-14T02:57:05.412Z,0.00
2018-02-14T02:58:05.362Z,0.00
2018-02-14T02:59:05.311Z,0.00
2018-02-14T03:00:05.429Z,0.00
2018-02-14T03:01:05.217Z,0.00
2018-02-14T03:02:05.462Z,0.00
2018-02-14T03:03:05.114Z,0.00
2018-02-14T03:04:05.063Z,0.00
2018-02-14T03:05:05.017Z,0.00
2018-02-14T03:06:04.964Z,0.00
2018-02-14T03:07:04.913Z,0.00
2018-02-14T03:08:04.866Z,0.00
2018-02-14T03:09:05.114Z,0.00
2018-02-14T03:10:04.764Z,0.00
2018-02-14T03:11:04.713Z,0.00
2018-02-14T03:12:04.665Z,0.00
2018-02-14T03:13:04.618Z,0.00
2018-02-14T03:14:04.567Z,0.00
2018-02-14T03:15:04.815Z,0.00
2018-02-14T03:16:04.466Z,0.00
2018-02-14T03:17:04.469Z,0.00
2018-02-14T03:18:04.371Z,0.00
2018-02-14T03:19:04.317Z,0.00
2018-02-14T03:20:04.266Z,0.00
2018-02-14T03:21:04.520Z,0.00
2018-02-14T03:22:04.173Z,0.00
2018-02-14T03:23:04.116Z,0.00
2018-02-14T03:24:04.068Z,0.00
2018-02-14T03:25:04.020Z,0.00
2018-02-14T03:26:03.967Z,0.00
2018-02-14T03:27:04.218Z,0.00
2018-02-14T03:28:03.867Z,0.00
2018-02-14T03:29:03.817Z,0.00
2018-02-14T03:30:03.769Z,0.00
2018-02-14T03:31:03.725Z,0.00
2018-02-14T03:32:03.671Z,0.00
2018-02-14T03:33:03.920Z,0.00
2018-02-14T03:34:03.582Z,0.00
2018-02-14T03:35:03.517Z,0.00
2018-02-14T03:36:03.467Z,0.00
2018-02-14T03:37:03.417Z,0.00
2018-02-14T03:38:03.367Z,0.00
2018-02-14T03:39:03.619Z,0.00
2018-02-14T03:40:03.270Z,0.00
2018-02-14T03:41:03.218Z,0.00
2018-02-14T03:42:03.169Z,0.00
2018-02-14T03:43:03.119Z,0.00
2018-02-14T03:44:03.068Z,0.00
2018-02-14T03:45:03.022Z,0.00
2018-02-14T03:46:03.272Z,0.00
2018-02-14T03:47:02.918Z,0.00
2018-02-14T03:48:02.868Z,0.00
2018-02-14T03:49:02.818Z,0.00
2018-02-14T03:50:02.771Z,0.00
2018-02-14T03:51:02.719Z,0.00
2018-02-14T03:52:02.672Z,0.00
2018-02-14T03:53:02.922Z,0.00
2018-02-14T03:54:02.566Z,0.00
2018-02-14T03:55:02.560Z,0.00
2018-02-14T03:56:02.470Z,0.00
2018-02-14T03:57:02.417Z,0.00
2018-02-14T03:58:02.366Z,0.00
2018-02-14T03:59:02.373Z,0.00
2018-02-14T04:00:02.571Z,0.00
2018-02-14T04:01:02.216Z,0.00
2018-02-14T04:02:02.166Z,0.00
2018-02-14T04:03:02.115Z,0.00
2018-02-14T04:04:02.067Z,0.00
2018-02-14T04:05:02.076Z,0.00
2018-02-14T04:06:01.971Z,0.00
2018-02-14T04:07:02.219Z,0.00
2018-02-14T04:08:01.868Z,0.00
2018-02-14T04:09:01.815Z,0.00
2018-02-14T04:10:01.768Z,0.00
2018-02-14T04:11:01.771Z,0.00
2018-02-14T04:12:01.665Z,0.00
2018-02-14T04:13:01.614Z,0.00
2018-02-14T04:14:01.871Z,0.00
2018-02-14T04:15:01.520Z,0.00
2018-02-14T04:16:01.466Z,0.00
2018-02-14T04:17:01.415Z,0.00
2018-02-14T04:18:01.364Z,0.00
2018-02-14T04:19:01.313Z,0.00
2018-02-14T04:20:01.267Z,0.00
2018-02-14T04:21:01.513Z,0.00
2018-02-14T04:22:01.163Z,0.00
2018-02-14T04:23:01.112Z,0.00
2018-02-14T04:24:01.063Z,0.00
2018-02-14T04:25:01.011Z,0.00
2018-02-14T04:26:00.968Z,0.00
2018-02-14T04:27:01.311Z,0.00
2018-02-14T04:28:00.869Z,0.00
2018-02-14T04:29:00.811Z,0.00
2018-02-14T04:30:00.763Z,0.00
2018-02-14T04:31:00.715Z,0.00
2018-02-14T04:32:00.659Z,0.00
2018-02-14T04:33:00.959Z,0.00
2018-02-14T04:34:00.558Z,0.00
2018-02-14T04:35:00.508Z,0.00
2018-02-14T04:36:00.456Z,0.00
2018-02-14T04:37:00.410Z,0.00
2018-02-14T04:38:00.358Z,0.00
2018-02-14T04:39:00.609Z,0.00
2018-02-14T04:40:00.258Z,0.00
2018-02-14T04:41:00.205Z,0.00
2018-02-14T04:42:00.207Z,0.00
2018-02-14T04:43:00.107Z,0.00
2018-02-14T04:44:00.105Z,0.00
2018-02-14T04:45:00.304Z,0.00
2018-02-14T04:45:59.956Z,0.00
2018-02-14T04:46:59.904Z,0.00
2018-02-14T04:47:59.858Z,0.00
2018-02-14T04:48:59.803Z,0.00
2018-02-14T04:49:59.753Z,0.00
2018-02-14T04:51:00.004Z,0.00
2018-02-14T04:51:59.652Z,0.00
2018-02-14T04:52:59.601Z,0.00
2018-02-14T04:53:59.552Z,0.00
2018-02-14T04:54:59.500Z,0.00
2018-02-14T04:55:59.502Z,0.00
2018-02-14T04:56:59.399Z,0.00
2018-02-14T04:57:59.651Z,0.00
2018-02-14T04:58:59.301Z,0.00
2018-02-14T04:59:59.253Z,0.00
2018-02-14T05:00:59.198Z,0.00
2018-02-14T05:01:59.148Z,0.00
2018-02-14T05:02:59.098Z,0.00
2018-02-14T05:03:59.054Z,0.00
2018-02-14T05:04:59.297Z,0.00
2018-02-14T05:05:58.951Z,0.00
2018-02-14T05:06:58.896Z,0.00
2018-02-14T05:07:58.849Z,0.00
2018-02-14T05:08:58.794Z,0.00
2018-02-14T05:09:58.744Z,0.00
2018-02-14T05:10:58.692Z,0.00
2018-02-14T05:11:58.943Z,0.00
2018-02-14T05:12:58.629Z,0.00
2018-02-14T05:13:58.541Z,0.00
2018-02-14T05:14:58.489Z,0.00
2018-02-14T05:15:58.441Z,0.00
2018-02-14T05:16:58.390Z,0.00
2018-02-14T05:17:58.388Z,0.00
2018-02-14T05:18:58.589Z,0.00
2018-02-14T05:19:58.240Z,0.00
2018-02-14T05:20:58.185Z,0.00
2018-02-14T05:21:58.141Z,0.00
2018-02-14T05:22:58.086Z,0.00
2018-02-14T05:23:58.040Z,0.00
2018-02-14T05:24:57.983Z,0.00
2018-02-14T05:25:58.233Z,0.00
2018-02-14T05:26:57.886Z,0.00
2018-02-14T05:27:57.831Z,0.00
2018-02-14T05:28:57.779Z,0.00
2018-02-14T05:29:57.730Z,0.00
2018-02-14T05:30:57.681Z,0.00
2018-02-14T05:31:57.930Z,0.00
2018-02-14T05:32:57.580Z,0.00
2018-02-14T05:33:57.529Z,0.00
2018-02-14T05:34:57.479Z,0.00
2018-02-14T05:35:57.428Z,0.00
2018-02-14T05:36:57.376Z,0.00
2018-02-14T05:37:57.627Z,0.00
2018-02-14T05:38:57.274Z,0.00
2018-02-14T05:39:57.224Z,0.00
2018-02-14T05:40:57.173Z,0.00
2018-02-14T05:41:57.122Z,0.00
2018-02-14T05:42:57.076Z,0.00
2018-02-14T05:43:57.326Z,0.00
2018-02-14T05:44:56.975Z,0.00
2018-02-14T05:45:56.927Z,0.00
2018-02-14T05:46:56.866Z,0.00
2018-02-14T05:47:56.819Z,0.00
2018-02-14T05:48:56.776Z,0.00
2018-02-14T05:49:57.205Z,0.00
2018-02-14T05:50:57.177Z,0.00
2018-02-14T05:51:57.097Z,0.00
2018-02-14T05:52:56.563Z,0.00
2018-02-14T05:53:56.514Z,0.00
2018-02-14T05:54:56.466Z,0.00
2018-02-14T05:55:56.762Z,0.00
2018-02-14T05:56:56.361Z,0.00
2018-02-14T05:57:56.309Z,0.00
2018-02-14T05:58:56.260Z,0.00
2018-02-14T05:59:56.209Z,0.00
2018-02-14T06:00:56.157Z,0.00
2018-02-14T06:01:56.157Z,0.00
2018-02-14T06:02:56.372Z,0.00
2018-02-14T06:03:56.012Z,0.00
2018-02-14T06:04:55.954Z,0.00
2018-02-14T06:05:55.903Z,4.00
2018-02-14T06:06:55.858Z,4.00
2018-02-14T06:07:55.853Z,0.00
2018-02-14T06:08:55.754Z,4.00
2018-02-14T06:09:56.003Z,4.00
2018-02-14T06:10:55.651Z,4.00
2018-02-14T06:11:55.602Z,4.00
2018-02-14T06:12:55.558Z,4.00
2018-02-14T06:13:55.601Z,8.00
2018-02-14T06:14:55.447Z,8.00
2018-02-14T06:15:55.397Z,12.00
2018-02-14T06:16:55.647Z,12.00
2018-02-14T06:17:55.298Z,12.00
2018-02-14T06:18:55.248Z,16.00
2018-02-14T06:19:55.197Z,20.00
2018-02-14T06:20:55.147Z,24.00
2018-02-14T06:21:55.123Z,28.00
2018-02-14T06:22:55.043Z,32.00
2018-02-14T06:23:55.294Z,40.00
2018-02-14T06:24:54.945Z,44.00
2018-02-14T06:25:54.891Z,56.00
2018-02-14T06:26:54.841Z,60.00
2018-02-14T06:27:54.788Z,72.00
2018-02-14T06:28:54.739Z,88.00
2018-02-14T06:29:54.688Z,100.00
2018-02-14T06:30:54.936Z,112.00
2018-02-14T06:31:54.585Z,132.00
2018-02-14T06:32:54.540Z,152.00
2018-02-14T06:33:54.484Z,172.00
2018-02-14T06:34:54.437Z,196.00
2018-02-14T06:35:54.395Z,224.00
2018-02-14T06:36:54.333Z,252.00
2018-02-14T06:37:54.580Z,284.00
2018-02-14T06:38:54.229Z,316.00
2018-02-14T06:39:54.184Z,356.00
2018-02-14T06:40:54.128Z,392.00
2018-02-14T06:41:54.076Z,432.00
2018-02-14T06:42:54.028Z,480.00
2018-02-14T06:43:53.978Z,528.00
2018-02-14T06:44:53.976Z,576.00
2018-02-14T06:45:53.879Z,632.00
2018-02-14T06:46:53.826Z,688.00
2018-02-14T06:47:53.774Z,748.00
2018-02-14T06:48:53.724Z,812.00
2018-02-14T06:49:53.973Z,876.00
2018-02-14T06:50:53.621Z,944.00
2018-02-14T06:51:53.576Z,1012.00
2018-02-14T06:52:53.521Z,1088.00
2018-02-14T06:53:53.469Z,1164.00
2018-02-14T06:54:53.419Z,1248.00
2018-02-14T06:55:53.678Z,1328.00
2018-02-14T06:56:53.319Z,1412.00
2018-02-14T06:57:53.268Z,1500.00
2018-02-14T06:58:53.227Z,1588.00
2018-02-14T06:59:53.169Z,1680.00
2018-02-14T07:00:53.168Z,1772.00
2018-02-14T07:01:53.416Z,1868.00
2018-02-14T07:02:53.016Z,1968.00
2018-02-14T07:03:52.967Z,2064.00
2018-02-14T07:04:52.912Z,2164.00
2018-02-14T07:05:52.876Z,2260.00
2018-02-14T07:06:52.813Z,2364.00
2018-02-14T07:07:52.864Z,2468.00
2018-02-14T07:08:52.711Z,2564.00
2018-02-14T07:09:52.662Z,2668.00
2018-02-14T07:10:52.611Z,2768.00
2018-02-14T07:11:52.568Z,2868.00
2018-02-14T07:12:52.514Z,2968.00
2018-02-14T07:13:52.960Z,3072.00
2018-02-14T07:14:52.411Z,3168.00
2018-02-14T07:15:52.362Z,3268.00
2018-02-14T07:16:52.312Z,3372.00
2018-02-14T07:17:52.261Z,3476.00
2018-02-14T07:18:52.211Z,3572.00
2018-02-14T07:19:52.159Z,3676.00
2018-02-14T07:20:52.108Z,3780.00
2018-02-14T07:21:52.060Z,3880.00
2018-02-14T07:22:52.008Z,3984.00
2018-02-14T07:23:51.960Z,4080.00
2018-02-14T07:24:52.055Z,4188.00
2018-02-14T07:25:51.859Z,4288.00
2018-02-14T07:26:51.806Z,4392.00
2018-02-14T07:27:51.760Z,4500.00
2018-02-14T07:28:51.707Z,4608.00
2018-02-14T07:29:51.658Z,4708.00
2018-02-14T07:30:51.656Z,4824.00
2018-02-14T07:31:51.556Z,6040.00
2018-02-14T07:32:51.805Z,11752.00
2018-02-14T07:33:51.455Z,14272.00
2018-02-14T07:34:51.406Z,13984.00
2018-02-14T07:35:51.361Z,13824.00
2018-02-14T07:36:51.459Z,13920.00
2018-02-14T07:37:51.264Z,16992.00
2018-02-14T07:38:51.208Z,19936.00
2018-02-14T07:39:51.459Z,23200.00
2018-02-14T07:40:51.167Z,24608.00
2018-02-14T07:41:51.062Z,25472.00
2018-02-14T07:42:51.015Z,26400.00
2018-02-14T07:43:51.013Z,26496.00
2018-02-14T07:44:50.916Z,26848.00
2018-02-14T07:45:50.872Z,28192.00
2018-02-14T07:46:51.119Z,30752.00
2018-02-14T07:47:50.774Z,32896.00
2018-02-14T07:48:50.728Z,35008.00
2018-02-14T07:49:50.680Z,36128.00
2018-02-14T07:50:50.634Z,36544.00
2018-02-14T07:51:50.588Z,36832.00
2018-02-14T07:52:50.844Z,37664.00
2018-02-14T07:53:50.548Z,38368.00
2018-02-14T07:54:50.453Z,39232.00
2018-02-14T07:55:50.410Z,39200.00
2018-02-14T07:56:50.370Z,38592.00
2018-02-14T07:57:50.323Z,38048.00
2018-02-14T07:58:50.578Z,38464.00
2018-02-14T07:59:50.231Z,39360.00
2018-02-14T08:00:50.189Z,40224.00
2018-02-14T08:01:50.196Z,41088.00
2018-02-14T08:02:50.111Z,40800.00
2018-02-14T08:03:50.060Z,40064.00
2018-02-14T08:04:50.323Z,40736.00
2018-02-14T08:05:50.029Z,42560.00
2018-02-14T08:06:49.932Z,45088.00
2018-02-14T08:07:49.892Z,47328.00
2018-02-14T08:08:49.850Z,49312.00
2018-02-14T08:09:49.813Z,50304.00
2018-02-14T08:10:50.067Z,50848.00
2018-02-14T08:11:49.790Z,51392.00
2018-02-14T08:12:49.684Z,52512.00
2018-02-14T08:13:49.641Z,52672.00
2018-02-14T08:14:49.603Z,52992.00
2018-02-14T08:15:49.564Z,52736.00
2018-02-14T08:16:49.830Z,52768.00
2018-02-14T08:17:49.480Z,52256.00
2018-02-14T08:18:49.514Z,52640.00
2018-02-14T08:19:49.407Z,52352.00
2018-02-14T08:20:49.369Z,51776.00
2018-02-14T08:21:49.370Z,51616.00
2018-02-14T08:22:49.311Z,52224.00
2018-02-14T08:23:49.699Z,53568.00
2018-02-14T08:24:49.205Z,56160.00
2018-02-14T08:25:49.166Z,59360.00
2018-02-14T08:26:49.177Z,63008.00
2018-02-14T08:27:49.093Z,64256.00
2018-02-14T08:28:49.094Z,65888.00
2018-02-14T08:29:49.018Z,66560.00
2018-02-14T08:30:49.266Z,66080.00
2018-02-14T08:31:48.927Z,66176.00
2018-02-14T08:32:48.887Z,66688.00
2018-02-14T08:33:48.896Z,67968.00
2018-02-14T08:34:48.816Z,68864.00
2018-02-14T08:35:48.823Z,69088.00
2018-02-14T08:36:48.786Z,68960.00
2018-02-14T08:37:48.993Z,68544.00
2018-02-14T08:38:48.722Z,68160.00
2018-02-14T08:39:48.615Z,68640.00
2018-02-14T08:40:48.681Z,68960.00
2018-02-14T08:41:48.596Z,69664.00
2018-02-14T08:42:48.502Z,71392.00
2018-02-14T08:43:48.521Z,73120.00
2018-02-14T08:44:48.727Z,75584.00
2018-02-14T08:45:48.387Z,75776.00
2018-02-14T08:46:48.350Z,75936.00
2018-02-14T08:47:48.309Z,75776.00
2018-02-14T08:48:48.270Z,75264.00
2018-02-14T08:49:48.233Z,74624.00
2018-02-14T08:50:48.253Z,74304.00
2018-02-14T08:51:48.460Z,75072.00
2018-02-14T08:52:48.130Z,76704.00
2018-02-14T08:53:48.088Z,77984.00
2018-02-14T08:54:48.123Z,79456.00
2018-02-14T08:55:48.010Z,79712.00
2018-02-14T08:56:48.025Z,80032.00
2018-02-14T08:57:47.930Z,80512.00
2018-02-14T08:58:48.194Z,80480.00
2018-02-14T08:59:47.862Z,80928.00
2018-02-14T09:00:47.820Z,82208.00
2018-02-14T09:01:47.839Z,84256.00
2018-02-14T09:02:47.749Z,86016.00
2018-02-14T09:03:47.763Z,86688.00
2018-02-14T09:04:47.970Z,85248.00
2018-02-14T09:05:47.682Z,83680.00
2018-02-14T09:06:47.604Z,82336.00
2018-02-14T09:07:47.560Z,82432.00
2018-02-14T09:08:47.575Z,84096.00
2018-02-14T09:09:47.485Z,86432.00
2018-02-14T09:10:47.748Z,87776.00
2018-02-14T09:11:47.463Z,88192.00
2018-02-14T09:12:47.378Z,88672.00
2018-02-14T09:13:47.336Z,88320.00
2018-02-14T09:14:47.298Z,87968.00
2018-02-14T09:15:47.266Z,88896.00
2018-02-14T09:16:47.536Z,89632.00
2018-02-14T09:17:47.188Z,89952.00
2018-02-14T09:18:47.215Z,89536.00
2018-02-14T09:19:47.118Z,89088.00
2018-02-14T09:20:47.076Z,87168.00
2018-02-14T09:21:47.042Z,85280.00
2018-02-14T09:22:47.313Z,85760.00
2018-02-14T09:23:47.053Z,87616.00
2018-02-14T09:24:46.929Z,89440.00
2018-02-14T09:25:46.942Z,90560.00
2018-02-14T09:26:46.856Z,91136.00
2018-02-14T09:27:46.820Z,90080.00
2018-02-14T09:28:47.132Z,89568.00
2018-02-14T09:29:46.800Z,89376.00
2018-02-14T09:30:46.755Z,89632.00
2018-02-14T09:31:46.728Z,89760.00
2018-02-14T09:32:46.633Z,90528.00
2018-02-14T09:33:46.594Z,91296.00
2018-02-14T09:34:46.557Z,91712.00
2018-02-14T09:35:46.833Z,90880.00
2018-02-14T09:36:46.487Z,91136.00
2018-02-14T09:37:46.447Z,91840.00
2018-02-14T09:38:46.427Z,94112.00
2018-02-14T09:39:46.374Z,94944.00
2018-02-14T09:40:46.405Z,95296.00
2018-02-14T09:41:46.351Z,94784.00
2018-02-14T09:42:46.564Z,92800.00
2018-02-14T09:43:46.231Z,92064.00
2018-02-14T09:44:46.188Z,92352.00
2018-02-14T09:45:46.208Z,93088.00
2018-02-14T09:46:46.264Z,94208.00
2018-02-14T09:47:46.078Z,94240.00
2018-02-14T09:48:46.099Z,93952.00
2018-02-14T09:49:46.354Z,93184.00
2018-02-14T09:50:46.022Z,94560.00
2018-02-14T09:51:46.091Z,94496.00
2018-02-14T09:52:45.902Z,95072.00
2018-02-14T09:53:45.858Z,96640.00
2018-02-14T09:54:45.975Z,97312.00
2018-02-14T09:55:45.888Z,96224.00
2018-02-14T09:56:46.119Z,94752.00
2018-02-14T09:57:45.730Z,91040.00
2018-02-14T09:58:45.689Z,88640.00
2018-02-14T09:59:45.698Z,87040.00
2018-02-14T10:00:45.657Z,86592.00
2018-02-14T10:01:45.624Z,87904.00
2018-02-14T10:02:45.586Z,89280.00
2018-02-14T10:03:45.851Z,89952.00
2018-02-14T10:04:45.552Z,91648.00
2018-02-14T10:05:45.430Z,92288.00
2018-02-14T10:06:45.398Z,92320.00
2018-02-14T10:07:45.364Z,92832.00
2018-02-14T10:08:45.326Z,95008.00
2018-02-14T10:09:45.342Z,97280.00
2018-02-14T10:10:45.562Z,97632.00
2018-02-14T10:11:45.273Z,97856.00
2018-02-14T10:12:45.187Z,97152.00
2018-02-14T10:13:45.201Z,96192.00
2018-02-14T10:14:45.125Z,95744.00
2018-02-14T10:15:45.090Z,95200.00
2018-02-14T10:16:45.398Z,96416.00
2018-02-14T10:17:45.030Z,98112.00
2018-02-14T10:18:45.027Z,99616.00
2018-02-14T10:19:44.992Z,100608.00
2018-02-14T10:20:44.972Z,100800.00
2018-02-14T10:21:45.028Z,100832.00
2018-02-14T10:22:45.144Z,101376.00
2018-02-14T10:23:44.865Z,103200.00
2018-02-14T10:24:44.819Z,103648.00
2018-02-14T10:26:44.749Z,101856.00
2018-02-14T10:27:44.664Z,100160.00
2018-02-14T10:28:44.934Z,96192.00
2018-02-14T10:29:44.699Z,93376.00
2018-02-14T10:30:44.563Z,93504.00
2018-02-14T10:31:44.586Z,95328.00
2018-02-14T10:32:44.494Z,100416.00
2018-02-14T10:33:44.516Z,104800.00
2018-02-14T10:34:45.737Z,105728.00
2018-02-14T10:35:44.396Z,105984.00
2018-02-14T10:36:44.421Z,105696.00
2018-02-14T10:37:44.334Z,104768.00
2018-02-14T10:38:44.345Z,103296.00
2018-02-14T10:39:44.325Z,103264.00
2018-02-14T10:40:44.527Z,104864.00
2018-02-14T10:41:44.249Z,105984.00
2018-02-14T10:42:44.165Z,108640.00
2018-02-14T10:43:44.177Z,111808.00
2018-02-14T10:44:44.143Z,112928.00
2018-02-14T10:45:44.063Z,112864.00
2018-02-14T10:46:44.330Z,111456.00
2018-02-14T10:47:44.005Z,107840.00
2018-02-14T10:48:44.012Z,102752.00
2018-02-14T10:49:43.981Z,98432.00
2018-02-14T10:50:43.896Z,93792.00
2018-02-14T10:51:43.917Z,90016.00
2018-02-14T10:52:43.840Z,89856.00
2018-02-14T10:53:44.147Z,93152.00
2018-02-14T10:54:43.823Z,96032.00
2018-02-14T10:55:43.735Z,97984.00
2018-02-14T10:56:43.798Z,99648.00
2018-02-14T10:57:44.368Z,102528.00
2018-02-14T10:58:43.683Z,103840.00
2018-02-14T10:59:43.603Z,104160.00
2018-02-14T11:00:43.866Z,104032.00
2018-02-14T11:01:43.585Z,104224.00
2018-02-14T11:02:43.500Z,104928.00
2018-02-14T11:03:43.484Z,102816.00
2018-02-14T11:04:43.497Z,99232.00
2018-02-14T11:05:43.408Z,97088.00
2018-02-14T11:06:43.425Z,97728.00
2018-02-14T11:07:43.689Z,99328.00
2018-02-14T11:08:43.353Z,101248.00
2018-02-14T11:09:43.320Z,102816.00
2018-02-14T11:10:43.255Z,103680.00
2018-02-14T11:11:43.258Z,103008.00
2018-02-14T11:12:43.223Z,100512.00
2018-02-14T11:13:43.190Z,98656.00
2018-02-14T11:14:43.410Z,98304.00
2018-02-14T11:15:43.073Z,97472.00
2018-02-14T11:16:43.092Z,98304.00
2018-02-14T11:17:43.075Z,101216.00
2018-02-14T11:18:43.030Z,103488.00
2018-02-14T11:19:42.989Z,103776.00
2018-02-14T11:20:42.909Z,103808.00
2018-02-14T11:21:43.170Z,102080.00
2018-02-14T11:22:42.888Z,100448.00
2018-02-14T11:23:42.876Z,99840.00
2018-02-14T11:24:42.821Z,98880.00
2018-02-14T11:25:42.738Z,99360.00
2018-02-14T11:26:42.751Z,99616.00
2018-02-14T11:27:42.716Z,98272.00
2018-02-14T11:28:43.596Z,96672.00
2018-02-14T11:29:42.670Z,94144.00
2018-02-14T11:30:42.572Z,90464.00
2018-02-14T11:31:42.585Z,89216.00
2018-02-14T11:32:42.555Z,89504.00
2018-02-14T11:33:42.512Z,90176.00
2018-02-14T11:34:42.530Z,90016.00
2018-02-14T11:35:42.698Z,90880.00
2018-02-14T11:36:42.413Z,92224.00
2018-02-14T11:37:42.395Z,93184.00
2018-02-14T11:38:42.304Z,93344.00
2018-02-14T11:39:42.344Z,92832.00
2018-02-14T11:40:42.227Z,93536.00
2018-02-14T11:41:42.551Z,94144.00
2018-02-14T11:42:42.213Z,92000.00
2018-02-14T11:43:42.129Z,89280.00
2018-02-14T11:44:42.150Z,86816.00
2018-02-14T11:45:42.064Z,85600.00
2018-02-14T11:46:42.188Z,85024.00
2018-02-14T11:47:42.296Z,84512.00
2018-02-14T11:48:41.948Z,85184.00
2018-02-14T11:49:41.965Z,85728.00
2018-02-14T11:50:41.883Z,87680.00
2018-02-14T11:51:41.897Z,88128.00
2018-02-14T11:52:41.859Z,87680.00
2018-02-14T11:53:42.082Z,87392.00
2018-02-14T11:54:41.801Z,85344.00
2018-02-14T11:55:41.761Z,83584.00
2018-02-14T11:56:41.723Z,84544.00
2018-02-14T11:57:41.689Z,85760.00
2018-02-14T11:58:41.652Z,86336.00
2018-02-14T11:59:41.870Z,85760.00
2018-02-14T12:00:41.536Z,85184.00
2018-02-14T12:01:41.547Z,87136.00
2018-02-14T12:02:41.518Z,87904.00
2018-02-14T12:03:41.435Z,87328.00
2018-02-14T12:04:41.449Z,86464.00
2018-02-14T12:05:41.665Z,85760.00
2018-02-14T12:06:41.379Z,84640.00
2018-02-14T12:07:41.340Z,84096.00
2018-02-14T12:08:41.310Z,82944.00
2018-02-14T12:09:41.269Z,82976.00
2018-02-14T12:10:41.190Z,83520.00
2018-02-14T12:11:41.204Z,84768.00
2018-02-14T12:12:41.414Z,85344.00
2018-02-14T12:13:41.132Z,85472.00
2018-02-14T12:14:41.103Z,86496.00
2018-02-14T12:15:41.075Z,87200.00
2018-02-14T12:16:41.038Z,86528.00
2018-02-14T12:17:40.998Z,87008.00
2018-02-14T12:18:40.925Z,88224.00
2018-02-14T12:19:41.245Z,89568.00
2018-02-14T12:20:40.836Z,88832.00
2018-02-14T12:21:40.854Z,89056.00
2018-02-14T12:22:40.769Z,88512.00
2018-02-14T12:23:40.736Z,87648.00
2018-02-14T12:24:40.771Z,88096.00
2018-02-14T12:25:40.735Z,88128.00
2018-02-14T12:26:40.956Z,88288.00
2018-02-14T12:27:40.659Z,88448.00
2018-02-14T12:28:40.556Z,88480.00
2018-02-14T12:29:40.579Z,88096.00
2018-02-14T12:30:40.489Z,88320.00
2018-02-14T12:31:40.523Z,88320.00
2018-02-14T12:32:40.470Z,88768.00